首页
METAR-TAF:

METAR-TAF

机场 :

New Orleans Naval Air Station Joint Reserve Base (Alvin Callender Field)

新奥尔良, 路易斯安那州, 美国

纬度: 29-50-14N, 经度: 090-01-28W, 海拔: 0米

当前天气观测

该预报发布于1小时和2分钟前的18:55 UTC
风速18节,风向东转东北,有时为23节阵风
温度 23°C
湿度 69%
气压 1022 hPa
能見度: 16.1公里
少量云层高于1200英尺
散云层高于4000英尺
多云层高于11000英尺

METAR: KNBG 191855Z 06018G23KT 10SM FEW012 SCT040 BKN110 23/17 A3019 RMK AO2 SLP222 T02280172 $

时间: 13:57 (19:57 UTC)

预报

预报有效从19日的 15点(UTC)到 20日的 15点(UTC)
风速8节,风向东北,有时为18节阵风
能見度: 4800
阴天层高于2000英尺
轻雾
短暂存在
从 19日的 15点(UTC)到 19日的 17点(UTC)
阴天层高于400英尺
成为
从 19日的 20点(UTC)到 19日的 22点(UTC)
风速8节,风向东北,有时为18节阵风
能见度10公里或以上
散云层高于2000英尺
多云层高于9000英尺
从 20日的 0100点(UTC)
风速8节,风向东北,有时为13节阵风
能见度10公里或以上
散云层高于9000英尺

TAF: KNBG 1915/2015 05008G18KT 4800 BR OVC020 QNH3018INS TEMPO 1915/1917 OVC004 BECMG 1920/1922 04008G18KT 9999 NSW SCT020 BKN090 QNH3014INS FM200100 04008G13KT 9999 SCT090 QNH3020INS T20/1918Z T15/2006Z FN00214

超过4000个机场的气象观测和天气预报(METAR&TAF报告)。

可查询的气象台以黄色和红色小点在地图上表示。

将鼠标移到小点上方,可查看气象台名称。

然后点击查看天气观测和预报。

如需切换地图:点击带黑十字的绿色按钮放大地图;点击带横线的绿色按钮缩小地图;或者点击绿色箭头查看邻近地区的地图。


METAR-TAF: